Trout Creek, Montana
Current Conditions -  °F | °C
As of 5:53 AM on Monday 22 Dec 2014 (Local Time) from KMLP Reporting Station
Moderate Fog Moderate Fog  
Wind Chill: 18°   Ceiling: 100
Heat Index: 25°   Visibility: 0.5mi
Dew Point: 24°   Wind: 6mph
Humidity: 96%   Direction: NA
Pressure: 29.89"   Gusts: NA
Location:  47.83°N, 115.61°W
Report Text: KMLP 221253Z AUTO VRB05KT 1/2SM FZFG VV001 M04/M04 A2989 RMK AO2 SLP155 T10391044 $
Loading
Personal Weather Stations






























Interactive Weather Map New forecast layout! Learn more

10-Day Weather Forecast

Advertisements
Track Severe Weather on mobile